This demonstration page uses our WeatherBlox Daily Observations layout. Learn more.

41.86663, -103.66717

Hourly Observations for December 21, 2019

Temp ( °F °C ) Dew Point ( °F °C ) Humidity (%) Winds ( mph kmh ) Pressure ( in mb ) Visibility ( mi km ) Precip ( " mm )
12:53 am 00:53 Clear 34 1.1 25 -3.9 70 70 NW 3 6 30.2 1023 10 16.0934 0 0
1:53 am 01:53 Clear 33 0.6 24 -4.4 70 70 NW 8 13 30.2 1023 10 16.0934 0 0
2:53 am 02:53 Clear 34 1.1 24 -4.4 67 67 NW 5 7 30.2 1023 10 16.0934 0 0
3:53 am 03:53 Clear 32 0 23 -5 69 69 NW 6 9 30.21 1023 10 16.0934 0 0
4:53 am 04:53 Clear 29 -1.7 22 -5.6 75 75 N 5 7 30.21 1023 10 16.0934 0 0
5:53 am 05:53 Clear 34 1.1 23 -5 64 64 NW 9 15 30.2 1023 10 16.0934 0 0
6:53 am 06:53 Clear 31 -0.6 22 -5.6 69 69 NW 6 9 30.2 1023 10 16.0934 0 0
7:53 am 07:53 Sunny 32 0 22 -5.6 66 66 NW 5 7 30.21 1023 10 16.0934 0 0
8:53 am 08:53 Sunny 40 4.4 26 -3.3 58 58 NW 3 6 30.19 1023 10 16.0934 0 0
9:53 am 09:53 Sunny 49 9.4 26 -3.3 41 41 WNW 7 11 30.2 1023 10 16.0934 0 0
10:53 am 10:53 Sunny 51 10.6 22 -5.6 32 32 W 14 22 30.16 1022 10 16.0934 0 0
11:53 am 11:53 Sunny 51 10.6 23 -5 33 33 W 9 15 30.14 1021 10 16.0934 0 0
12:53 pm 12:53 Sunny 54 12.2 23 -5 30 30 WSW 10 17 30.09 1019 10 16.0934 0 0
1:53 pm 13:53 Sunny 56 13.3 21 -6.1 26 26 NW 8 13 30.08 1019 10 16.0934 0 0
2:53 pm 14:53 Sunny 56 13.3 20 -6.7 24 24 W 10 17 30.08 1019 10 16.0934 0 0
3:53 pm 15:53 Sunny 51 10.6 20 -6.7 29 29 W 9 15 30.11 1020 10 16.0934 0 0
4:53 pm 16:53 Clear 43 6.1 21 -6.1 42 42 S 5 7 30.15 1021 10 16.0934 0 0
5:53 pm 17:53 Clear 39 3.9 22 -5.6 50 50 WNW 3 6 30.14 1021 10 16.0934 0 0
6:53 pm 18:53 Clear 40 4.4 22 -5.6 49 49 WNW 3 6 30.16 1021 10 16.0934 0 0
7:53 pm 19:53 Clear 35 1.7 23 -5 61 61 NNW 3 6 30.17 1022 10 16.0934 0 0
8:53 pm 20:53 Clear 31 -0.6 24 -4.4 76 76 N 5 7 30.15 1021 10 16.0934 0 0
9:53 pm 21:53 Clear 30 -1.1 23 -5 75 75 Calm 30.12 1020 10 16.0934 0 0
10:53 pm 22:53 Clear 29 -1.7 23 -5 78 78 Calm 30.12 1020 10 16.0934 0 0
11:53 pm 23:53 Clear 27 -2.8 23 -5 85 85 Calm 30.12 1020 10 16.0934 0 0

Powered by AerisWeather